sensor_id;sensor_type;location;lat;lon;timestamp;pressure;altitude;pressure_sealevel;temperature;humidity
30967;BME280;17649;51.836;8.330;2023-04-08T00:02:26;101623.03;;;4.63;100.00
30967;BME280;17649;51.836;8.330;2023-04-08T00:05:27;101627.50;;;4.51;100.00
30967;BME280;17649;51.836;8.330;2023-04-08T00:08:28;101624.19;;;4.41;100.00
30967;BME280;17649;51.836;8.330;2023-04-08T00:11:28;101623.47;;;4.33;100.00
30967;BME280;17649;51.836;8.330;2023-04-08T00:14:29;101626.09;;;4.27;100.00
30967;BME280;17649;51.836;8.330;2023-04-08T00:17:29;101620.91;;;4.33;100.00
30967;BME280;17649;51.836;8.330;2023-04-08T00:20:30;101624.28;;;4.36;100.00
30967;BME280;17649;51.836;8.330;2023-04-08T00:23:30;101628.56;;;4.34;100.00
30967;BME280;17649;51.836;8.330;2023-04-08T00:26:30;101626.78;;;4.39;100.00
30967;BME280;17649;51.836;8.330;2023-04-08T00:29:31;101628.72;;;4.22;100.00
30967;BME280;17649;51.836;8.330;2023-04-08T00:32:31;101621.94;;;4.16;100.00
30967;BME280;17649;51.836;8.330;2023-04-08T00:35:33;101620.34;;;4.09;100.00
30967;BME280;17649;51.836;8.330;2023-04-08T00:38:33;101622.16;;;4.00;100.00
30967;BME280;17649;51.836;8.330;2023-04-08T00:41:34;101622.22;;;3.97;100.00
30967;BME280;17649;51.836;8.330;2023-04-08T00:44:35;101624.75;;;3.97;100.00
30967;BME280;17649;51.836;8.330;2023-04-08T00:47:35;101629.03;;;3.98;100.00
30967;BME280;17649;51.836;8.330;2023-04-08T00:50:36;101627.28;;;4.00;100.00
30967;BME280;17649;51.836;8.330;2023-04-08T00:53:36;101625.50;;;4.08;100.00
30967;BME280;17649;51.836;8.330;2023-04-08T00:56:37;101629.78;;;4.07;100.00
30967;BME280;17649;51.836;8.330;2023-04-08T00:59:37;101637.34;;;4.15;100.00
30967;BME280;17649;51.836;8.330;2023-04-08T01:02:46;101639.84;;;4.21;100.00
30967;BME280;17649;51.836;8.330;2023-04-08T01:06:21;101635.41;;;4.35;100.00
30967;BME280;17649;51.836;8.330;2023-04-08T01:09:29;101636.06;;;4.49;100.00
30967;BME280;17649;51.836;8.330;2023-04-08T01:12:38;101632.63;;;4.51;100.00
30967;BME280;17649;51.836;8.330;2023-04-08T01:15:43;101637.72;;;4.52;100.00
30967;BME280;17649;51.836;8.330;2023-04-08T01:18:45;101639.31;;;4.59;100.00
30967;BME280;17649;51.836;8.330;2023-04-08T01:21:47;101643.59;;;4.59;100.00
30967;BME280;17649;51.836;8.330;2023-04-08T01:24:49;101643.75;;;4.49;100.00
30967;BME280;17649;51.836;8.330;2023-04-08T01:27:52;101647.09;;;4.55;100.00
30967;BME280;17649;51.836;8.330;2023-04-08T01:30:58;101644.53;;;4.55;100.00
30967;BME280;17649;51.836;8.330;2023-04-08T01:34:00;101650.56;;;4.51;100.00
30967;BME280;17649;51.836;8.330;2023-04-08T01:37:05;101640.47;;;4.38;100.00
30967;BME280;17649;51.836;8.330;2023-04-08T01:40:07;101647.97;;;4.52;100.00
30967;BME280;17649;51.836;8.330;2023-04-08T01:43:10;101640.28;;;4.52;100.00
30967;BME280;17649;51.836;8.330;2023-04-08T01:46:11;101646.13;;;4.63;100.00
30967;BME280;17649;51.836;8.330;2023-04-08T01:49:14;101640.84;;;4.72;100.00
30967;BME280;17649;51.836;8.330;2023-04-08T01:52:17;101644.94;;;4.84;100.00
30967;BME280;17649;51.836;8.330;2023-04-08T01:55:19;101638.00;;;4.92;100.00
30967;BME280;17649;51.836;8.330;2023-04-08T01:58:20;101643.81;;;5.02;100.00
30967;BME280;17649;51.836;8.330;2023-04-08T02:01:24;101637.75;;;5.07;100.00
30967;BME280;17649;51.836;8.330;2023-04-08T02:04:25;101635.13;;;5.11;100.00
30967;BME280;17649;51.836;8.330;2023-04-08T02:07:25;101639.47;;;5.05;100.00
30967;BME280;17649;51.836;8.330;2023-04-08T02:10:26;101635.06;;;5.14;100.00
30967;BME280;17649;51.836;8.330;2023-04-08T02:13:28;101639.19;;;5.24;100.00
30967;BME280;17649;51.836;8.330;2023-04-08T02:16:34;101641.66;;;5.28;100.00
30967;BME280;17649;51.836;8.330;2023-04-08T02:23:06;101649.88;;;5.49;100.00
30967;BME280;17649;51.836;8.330;2023-04-08T02:26:12;101644.59;;;5.56;100.00
30967;BME280;17649;51.836;8.330;2023-04-08T02:29:14;101649.50;;;5.70;100.00
30967;BME280;17649;51.836;8.330;2023-04-08T02:32:16;101646.84;;;5.75;100.00
30967;BME280;17649;51.836;8.330;2023-04-08T02:35:17;101651.19;;;5.71;100.00
30967;BME280;17649;51.836;8.330;2023-04-08T02:38:18;101645.91;;;5.77;100.00
30967;BME280;17649;51.836;8.330;2023-04-08T02:41:18;101649.44;;;5.73;100.00
30967;BME280;17649;51.836;8.330;2023-04-08T02:44:18;101648.47;;;5.79;100.00
30967;BME280;17649;51.836;8.330;2023-04-08T02:47:19;101645.75;;;5.86;100.00
30967;BME280;17649;51.836;8.330;2023-04-08T02:50:20;101638.97;;;5.84;100.00
30967;BME280;17649;51.836;8.330;2023-04-08T02:53:21;101656.78;;;5.93;100.00
30967;BME280;17649;51.836;8.330;2023-04-08T02:56:22;101657.50;;;6.01;100.00
30967;BME280;17649;51.836;8.330;2023-04-08T02:59:22;101660.88;;;6.03;100.00
30967;BME280;17649;51.836;8.330;2023-04-08T03:02:22;101659.84;;;6.12;100.00
30967;BME280;17649;51.836;8.330;2023-04-08T03:05:25;101666.34;;;6.30;100.00
30967;BME280;17649;51.836;8.330;2023-04-08T03:08:26;101665.56;;;6.24;100.00
30967;BME280;17649;51.836;8.330;2023-04-08T03:11:27;101663.00;;;6.26;100.00
30967;BME280;17649;51.836;8.330;2023-04-08T03:14:27;101664.47;;;6.36;100.00
30967;BME280;17649;51.836;8.330;2023-04-08T03:17:28;101670.97;;;6.52;100.00
30967;BME280;17649;51.836;8.330;2023-04-08T03:20:31;101668.22;;;6.62;100.00
30967;BME280;17649;51.836;8.330;2023-04-08T03:23:32;101671.44;;;6.71;100.00
30967;BME280;17649;51.836;8.330;2023-04-08T03:26:33;101672.09;;;6.79;100.00
30967;BME280;17649;51.836;8.330;2023-04-08T03:29:33;101668.66;;;6.80;100.00
30967;BME280;17649;51.836;8.330;2023-04-08T03:32:34;101660.13;;;6.78;100.00
30967;BME280;17649;51.836;8.330;2023-04-08T03:35:35;101669.59;;;6.76;100.00
30967;BME280;17649;51.836;8.330;2023-04-08T03:38:36;101655.88;;;6.77;100.00
30967;BME280;17649;51.836;8.330;2023-04-08T03:41:37;101660.06;;;6.81;100.00
30967;BME280;17649;51.836;8.330;2023-04-08T03:44:37;101669.59;;;6.76;100.00
30967;BME280;17649;51.836;8.330;2023-04-08T03:47:39;101671.16;;;6.83;100.00
30967;BME280;17649;51.836;8.330;2023-04-08T03:50:40;101671.19;;;6.82;100.00
30967;BME280;17649;51.836;8.330;2023-04-08T03:53:41;101665.06;;;6.87;100.00
30967;BME280;17649;51.836;8.330;2023-04-08T03:56:41;101660.53;;;6.97;100.00
30967;BME280;17649;51.836;8.330;2023-04-08T03:59:41;101673.38;;;6.99;100.00
30967;BME280;17649;51.836;8.330;2023-04-08T04:02:42;101670.63;;;7.06;100.00
30967;BME280;17649;51.836;8.330;2023-04-08T04:05:42;101667.00;;;7.13;100.00
30967;BME280;17649;51.836;8.330;2023-04-08T04:08:42;101672.19;;;7.12;100.00
30967;BME280;17649;51.836;8.330;2023-04-08T04:11:43;101672.16;;;7.15;100.00
30967;BME280;17649;51.836;8.330;2023-04-08T04:14:43;101679.72;;;7.21;100.00
30967;BME280;17649;51.836;8.330;2023-04-08T04:17:46;101678.75;;;7.25;100.00
30967;BME280;17649;51.836;8.330;2023-04-08T04:20:47;101684.94;;;7.18;100.00
30967;BME280;17649;51.836;8.330;2023-04-08T04:23:47;101680.38;;;7.28;100.00
30967;BME280;17649;51.836;8.330;2023-04-08T04:26:48;101674.41;;;7.27;100.00
30967;BME280;17649;51.836;8.330;2023-04-08T04:29:48;101681.16;;;7.33;100.00
30967;BME280;17649;51.836;8.330;2023-04-08T04:32:48;101679.34;;;7.36;100.00
30967;BME280;17649;51.836;8.330;2023-04-08T04:35:49;101671.81;;;7.27;100.00
30967;BME280;17649;51.836;8.330;2023-04-08T04:38:49;101677.28;;;7.15;100.00
30967;BME280;17649;51.836;8.330;2023-04-08T04:41:50;101680.06;;;7.06;100.00
30967;BME280;17649;51.836;8.330;2023-04-08T04:44:51;101675.91;;;7.02;100.00
30967;BME280;17649;51.836;8.330;2023-04-08T04:47:51;101692.09;;;7.05;100.00
30967;BME280;17649;51.836;8.330;2023-04-08T04:50:55;101682.69;;;7.04;100.00
30967;BME280;17649;51.836;8.330;2023-04-08T04:53:56;101679.22;;;7.05;100.00
30967;BME280;17649;51.836;8.330;2023-04-08T04:56:57;101685.81;;;7.17;100.00
30967;BME280;17649;51.836;8.330;2023-04-08T04:59:57;101677.22;;;7.18;100.00
30967;BME280;17649;51.836;8.330;2023-04-08T05:02:57;101686.63;;;7.19;100.00
30967;BME280;17649;51.836;8.330;2023-04-08T05:05:58;101684.81;;;7.23;100.00
30967;BME280;17649;51.836;8.330;2023-04-08T05:08:58;101681.41;;;7.22;100.00
30967;BME280;17649;51.836;8.330;2023-04-08T05:11:59;101691.78;;;7.19;100.00
30967;BME280;17649;51.836;8.330;2023-04-08T05:14:59;101697.69;;;7.23;100.00
30967;BME280;17649;51.836;8.330;2023-04-08T05:18:01;101700.09;;;7.30;100.00
30967;BME280;17649;51.836;8.330;2023-04-08T05:21:02;101701.53;;;7.40;100.00
30967;BME280;17649;51.836;8.330;2023-04-08T05:24:02;101701.47;;;7.43;100.00
30967;BME280;17649;51.836;8.330;2023-04-08T05:27:02;101692.09;;;7.41;100.00
30967;BME280;17649;51.836;8.330;2023-04-08T05:30:03;101706.78;;;7.37;100.00
30967;BME280;17649;51.836;8.330;2023-04-08T05:33:03;101703.22;;;7.41;100.00
30967;BME280;17649;51.836;8.330;2023-04-08T05:36:04;101710.69;;;7.52;100.00
30967;BME280;17649;51.836;8.330;2023-04-08T05:39:04;101713.00;;;7.63;100.00
30967;BME280;17649;51.836;8.330;2023-04-08T05:42:05;101721.31;;;7.74;100.00
30967;BME280;17649;51.836;8.330;2023-04-08T05:45:06;101720.44;;;7.75;100.00
30967;BME280;17649;51.836;8.330;2023-04-08T05:48:06;101718.47;;;7.83;100.00
30967;BME280;17649;51.836;8.330;2023-04-08T05:51:15;101716.94;;;7.77;100.00
30967;BME280;17649;51.836;8.330;2023-04-08T05:54:15;101721.84;;;7.85;100.00
30967;BME280;17649;51.836;8.330;2023-04-08T05:57:16;101730.25;;;7.93;100.00
30967;BME280;17649;51.836;8.330;2023-04-08T06:00:16;101733.41;;;8.03;100.00
30967;BME280;17649;51.836;8.330;2023-04-08T06:03:19;101734.88;;;8.13;100.00
30967;BME280;17649;51.836;8.330;2023-04-08T06:06:19;101739.25;;;8.10;100.00
30967;BME280;17649;51.836;8.330;2023-04-08T06:09:20;101751.41;;;8.06;100.00
30967;BME280;17649;51.836;8.330;2023-04-08T06:12:20;101752.78;;;8.18;100.00
30967;BME280;17649;51.836;8.330;2023-04-08T06:15:24;101751.53;;;8.34;100.00
30967;BME280;17649;51.836;8.330;2023-04-08T06:18:25;101751.47;;;8.35;100.00
30967;BME280;17649;51.836;8.330;2023-04-08T06:21:25;101752.00;;;8.47;100.00
30967;BME280;17649;51.836;8.330;2023-04-08T06:24:26;101753.41;;;8.58;100.00
30967;BME280;17649;51.836;8.330;2023-04-08T06:27:27;101747.13;;;8.67;100.00
30967;BME280;17649;51.836;8.330;2023-04-08T06:30:27;101769.97;;;8.81;100.00
30967;BME280;17649;51.836;8.330;2023-04-08T06:33:27;101761.03;;;8.91;100.00
30967;BME280;17649;51.836;8.330;2023-04-08T06:36:27;101764.72;;;9.12;100.00
30967;BME280;17649;51.836;8.330;2023-04-08T06:39:28;101767.63;;;9.29;100.00
30967;BME280;17649;51.836;8.330;2023-04-08T06:42:28;101776.72;;;9.41;100.00
30967;BME280;17649;51.836;8.330;2023-04-08T06:45:28;101776.72;;;9.41;100.00
30967;BME280;17649;51.836;8.330;2023-04-08T06:48:29;101775.25;;;9.32;100.00
30967;BME280;17649;51.836;8.330;2023-04-08T06:51:31;101793.06;;;9.41;100.00
30967;BME280;17649;51.836;8.330;2023-04-08T06:54:31;101792.22;;;9.41;100.00
30967;BME280;17649;51.836;8.330;2023-04-08T06:57:31;101794.97;;;9.35;100.00
30967;BME280;17649;51.836;8.330;2023-04-08T07:00:32;101789.81;;;9.35;100.00
30967;BME280;17649;51.836;8.330;2023-04-08T07:03:33;101800.03;;;9.11;100.00
30967;BME280;17649;51.836;8.330;2023-04-08T07:06:33;101797.81;;;8.99;100.00
30967;BME280;17649;51.836;8.330;2023-04-08T07:09:34;101799.34;;;9.05;100.00
30967;BME280;17649;51.836;8.330;2023-04-08T07:12:35;101815.31;;;9.17;100.00
30967;BME280;17649;51.836;8.330;2023-04-08T07:15:36;101816.78;;;9.26;100.00
30967;BME280;17649;51.836;8.330;2023-04-08T07:18:36;101820.78;;;9.08;100.00
30967;BME280;17649;51.836;8.330;2023-04-08T07:21:37;101825.66;;;9.17;100.00
30967;BME280;17649;51.836;8.330;2023-04-08T07:24:37;101821.31;;;9.18;100.00
30967;BME280;17649;51.836;8.330;2023-04-08T07:27:37;101825.56;;;9.20;100.00
30967;BME280;17649;51.836;8.330;2023-04-08T07:30:38;101827.66;;;9.36;100.00
30967;BME280;17649;51.836;8.330;2023-04-08T07:33:38;101821.44;;;9.43;100.00
30967;BME280;17649;51.836;8.330;2023-04-08T07:36:38;101829.81;;;9.23;100.00
30967;BME280;17649;51.836;8.330;2023-04-08T07:39:40;101836.50;;;9.29;100.00
30967;BME280;17649;51.836;8.330;2023-04-08T07:42:40;101831.13;;;9.35;100.00
30967;BME280;17649;51.836;8.330;2023-04-08T07:45:41;101831.94;;;9.37;100.00
30967;BME280;17649;51.836;8.330;2023-04-08T07:48:41;101831.06;;;9.38;100.00
30967;BME280;17649;51.836;8.330;2023-04-08T07:51:42;101827.25;;;9.49;100.00
30967;BME280;17649;51.836;8.330;2023-04-08T07:54:42;101832.72;;;9.67;100.00
30967;BME280;17649;51.836;8.330;2023-04-08T07:57:42;101840.84;;;9.82;100.00
30967;BME280;17649;51.836;8.330;2023-04-08T08:00:43;101837.84;;;9.95;100.00
30967;BME280;17649;51.836;8.330;2023-04-08T08:03:43;101834.91;;;10.05;100.00
30967;BME280;17649;51.836;8.330;2023-04-08T08:06:44;101842.13;;;10.22;100.00
30967;BME280;17649;51.836;8.330;2023-04-08T08:09:45;101841.91;;;10.53;100.00
30967;BME280;17649;51.836;8.330;2023-04-08T08:12:45;101838.94;;;10.64;100.00
30967;BME280;17649;51.836;8.330;2023-04-08T08:15:46;101840.41;;;10.94;100.00
30967;BME280;17649;51.836;8.330;2023-04-08T08:18:46;101851.03;;;11.10;100.00
30967;BME280;17649;51.836;8.330;2023-04-08T08:21:47;101852.38;;;11.42;100.00
30967;BME280;17649;51.836;8.330;2023-04-08T08:24:47;101855.75;;;11.44;100.00
30967;BME280;17649;51.836;8.330;2023-04-08T08:27:48;101862.03;;;11.39;100.00
30967;BME280;17649;51.836;8.330;2023-04-08T08:30:48;101864.09;;;11.52;100.00
30967;BME280;17649;51.836;8.330;2023-04-08T08:33:50;101866.56;;;11.33;100.00
30967;BME280;17649;51.836;8.330;2023-04-08T08:36:50;101863.34;;;11.27;100.00
30967;BME280;17649;51.836;8.330;2023-04-08T08:39:52;101854.13;;;11.42;100.00
30967;BME280;17649;51.836;8.330;2023-04-08T08:42:52;101865.34;;;11.42;100.00
30967;BME280;17649;51.836;8.330;2023-04-08T08:45:53;101862.00;;;11.84;100.00
30967;BME280;17649;51.836;8.330;2023-04-08T08:48:54;101863.38;;;12.13;100.00
30967;BME280;17649;51.836;8.330;2023-04-08T08:51:54;101869.72;;;12.46;100.00
30967;BME280;17649;51.836;8.330;2023-04-08T08:54:59;101858.13;;;12.55;100.00
30967;BME280;17649;51.836;8.330;2023-04-08T08:58:02;101858.00;;;12.77;100.00
30967;BME280;17649;51.836;8.330;2023-04-08T09:01:02;101862.34;;;12.58;100.00
30967;BME280;17649;51.836;8.330;2023-04-08T09:07:10;101876.44;;;11.89;100.00
30967;BME280;17649;51.836;8.330;2023-04-08T09:10:12;101864.56;;;12.26;100.00
30967;BME280;17649;51.836;8.330;2023-04-08T09:13:13;101868.91;;;12.26;100.00
30967;BME280;17649;51.836;8.330;2023-04-08T09:16:25;101883.59;;;11.39;100.00
30967;BME280;17649;51.836;8.330;2023-04-08T09:19:26;101890.44;;;12.28;100.00
30967;BME280;17649;51.836;8.330;2023-04-08T09:22:28;101869.81;;;12.65;100.00
30967;BME280;17649;51.836;8.330;2023-04-08T09:25:30;101870.78;;;12.42;100.00
30967;BME280;17649;51.836;8.330;2023-04-08T09:28:34;101880.00;;;11.87;100.00
30967;BME280;17649;51.836;8.330;2023-04-08T09:31:39;101869.97;;;12.81;100.00
30967;BME280;17649;51.836;8.330;2023-04-08T09:34:40;101866.47;;;13.01;100.00
30967;BME280;17649;51.836;8.330;2023-04-08T09:37:42;101863.34;;;12.93;100.00
30967;BME280;17649;51.836;8.330;2023-04-08T09:40:44;101869.28;;;12.96;100.00
30967;BME280;17649;51.836;8.330;2023-04-08T09:43:52;101878.91;;;13.13;100.00
30967;BME280;17649;51.836;8.330;2023-04-08T09:47:19;101890.16;;;13.68;100.00
30967;BME280;17649;51.836;8.330;2023-04-08T09:50:29;101876.75;;;14.12;100.00
30967;BME280;17649;51.836;8.330;2023-04-08T09:53:37;101881.25;;;13.91;100.00
30967;BME280;17649;51.836;8.330;2023-04-08T09:56:46;101874.09;;;14.31;100.00
30967;BME280;17649;51.836;8.330;2023-04-08T09:59:52;101867.50;;;14.58;100.00
30967;BME280;17649;51.836;8.330;2023-04-08T10:03:31;101867.41;;;15.40;100.00
30967;BME280;17649;51.836;8.330;2023-04-08T10:06:35;101870.63;;;14.81;100.00
30967;BME280;17649;51.836;8.330;2023-04-08T10:09:37;101868.34;;;14.59;100.00
30967;BME280;17649;51.836;8.330;2023-04-08T10:12:38;101872.09;;;14.53;100.00
30967;BME280;17649;51.836;8.330;2023-04-08T10:15:39;101869.34;;;13.87;100.00
30967;BME280;17649;51.836;8.330;2023-04-08T10:18:42;101870.56;;;14.32;100.00
30967;BME280;17649;51.836;8.330;2023-04-08T10:21:43;101879.41;;;14.96;100.00
30967;BME280;17649;51.836;8.330;2023-04-08T10:28:24;101879.66;;;15.86;100.00
30967;BME280;17649;51.836;8.330;2023-04-08T10:31:35;101879.66;;;15.86;100.00
30967;BME280;17649;51.836;8.330;2023-04-08T10:34:50;101881.91;;;14.48;100.00
30967;BME280;17649;51.836;8.330;2023-04-08T10:37:52;101884.28;;;15.17;100.00
30967;BME280;17649;51.836;8.330;2023-04-08T10:40:53;101876.66;;;15.77;100.00
30967;BME280;17649;51.836;8.330;2023-04-08T10:43:53;101886.09;;;15.33;100.00
30967;BME280;17649;51.836;8.330;2023-04-08T10:46:54;101883.53;;;15.94;100.00
30967;BME280;17649;51.836;8.330;2023-04-08T10:49:54;101874.88;;;15.78;100.00
30967;BME280;17649;51.836;8.330;2023-04-08T10:52:55;101880.97;;;15.63;100.00
30967;BME280;17649;51.836;8.330;2023-04-08T10:56:10;101887.03;;;15.63;100.00
30967;BME280;17649;51.836;8.330;2023-04-08T10:59:28;101889.00;;;15.58;100.00
30967;BME280;17649;51.836;8.330;2023-04-08T11:02:32;101883.13;;;14.91;100.00
30967;BME280;17649;51.836;8.330;2023-04-08T11:05:35;101878.72;;;14.42;100.00
30967;BME280;17649;51.836;8.330;2023-04-08T11:08:36;101882.03;;;14.63;100.00
30967;BME280;17649;51.836;8.330;2023-04-08T11:11:40;101879.03;;;14.86;100.00
30967;BME280;17649;51.836;8.330;2023-04-08T11:14:41;101885.19;;;14.85;100.00
30967;BME280;17649;51.836;8.330;2023-04-08T11:17:42;101878.75;;;14.24;100.00
30967;BME280;17649;51.836;8.330;2023-04-08T11:20:43;101892.09;;;15.02;100.00
30967;BME280;17649;51.836;8.330;2023-04-08T11:23:44;101875.78;;;15.93;100.00
30967;BME280;17649;51.836;8.330;2023-04-08T11:26:44;101881.75;;;16.25;100.00
30967;BME280;17649;51.836;8.330;2023-04-08T11:29:47;101883.53;;;15.94;100.00
30967;BME280;17649;51.836;8.330;2023-04-08T11:32:48;101879.16;;;15.32;100.00
30967;BME280;17649;51.836;8.330;2023-04-08T11:35:50;101878.44;;;15.61;100.00
30967;BME280;17649;51.836;8.330;2023-04-08T11:38:53;101868.22;;;16.32;100.00
30967;BME280;17649;51.836;8.330;2023-04-08T11:41:53;101875.78;;;15.77;100.00
30967;BME280;17649;51.836;8.330;2023-04-08T11:44:54;101876.66;;;16.22;100.00
30967;BME280;17649;51.836;8.330;2023-04-08T11:47:55;101864.78;;;16.60;100.00
30967;BME280;17649;51.836;8.330;2023-04-08T11:51:03;101876.97;;;16.31;100.00
30967;BME280;17649;51.836;8.330;2023-04-08T11:54:05;101880.94;;;15.78;100.00
30967;BME280;17649;51.836;8.330;2023-04-08T11:57:06;101881.47;;;15.99;100.00
30967;BME280;17649;51.836;8.330;2023-04-08T12:00:09;101882.88;;;16.05;100.00
30967;BME280;17649;51.836;8.330;2023-04-08T12:03:09;101889.78;;;16.06;100.00
30967;BME280;17649;51.836;8.330;2023-04-08T12:06:10;101886.47;;;15.88;100.00
30967;BME280;17649;51.836;8.330;2023-04-08T12:09:10;101893.06;;;15.79;100.00
30967;BME280;17649;51.836;8.330;2023-04-08T12:12:11;101892.63;;;15.40;100.00
30967;BME280;17649;51.836;8.330;2023-04-08T12:15:11;101884.72;;;15.41;100.00
30967;BME280;17649;51.836;8.330;2023-04-08T12:18:11;101882.97;;;15.42;100.00
30967;BME280;17649;51.836;8.330;2023-04-08T12:21:12;101888.09;;;15.43;100.00
30967;BME280;17649;51.836;8.330;2023-04-08T12:24:13;101879.88;;;15.35;100.00
30967;BME280;17649;51.836;8.330;2023-04-08T12:27:14;101881.81;;;15.47;100.00
30967;BME280;17649;51.836;8.330;2023-04-08T12:30:14;101887.50;;;15.54;100.00
30967;BME280;17649;51.836;8.330;2023-04-08T12:33:15;101881.03;;;15.30;100.00
30967;BME280;17649;51.836;8.330;2023-04-08T12:36:15;101884.34;;;14.84;100.00
30967;BME280;17649;51.836;8.330;2023-04-08T12:39:17;101890.25;;;14.88;100.00
30967;BME280;17649;51.836;8.330;2023-04-08T12:42:18;101876.94;;;14.77;100.00
30967;BME280;17649;51.836;8.330;2023-04-08T12:45:18;101885.53;;;14.79;100.00
30967;BME280;17649;51.836;8.330;2023-04-08T12:48:18;101884.50;;;14.81;100.00
30967;BME280;17649;51.836;8.330;2023-04-08T12:51:21;101883.88;;;15.09;100.00
30967;BME280;17649;51.836;8.330;2023-04-08T12:54:26;101889.00;;;14.95;100.00
30967;BME280;17649;51.836;8.330;2023-04-08T12:57:26;101896.75;;;14.64;100.00
30967;BME280;17649;51.836;8.330;2023-04-08T13:00:27;101893.81;;;14.70;100.00
30967;BME280;17649;51.836;8.330;2023-04-08T13:03:28;101889.88;;;14.45;100.00
30967;BME280;17649;51.836;8.330;2023-04-08T13:06:30;101886.19;;;14.32;100.00
30967;BME280;17649;51.836;8.330;2023-04-08T13:09:31;101888.16;;;14.61;100.00
30967;BME280;17649;51.836;8.330;2023-04-08T13:12:32;101898.84;;;15.06;100.00
30967;BME280;17649;51.836;8.330;2023-04-08T13:15:33;101891.06;;;15.21;100.00
30967;BME280;17649;51.836;8.330;2023-04-08T13:18:33;101895.66;;;15.16;100.00
30967;BME280;17649;51.836;8.330;2023-04-08T13:21:35;101896.00;;;15.42;100.00
30967;BME280;17649;51.836;8.330;2023-04-08T13:24:37;101893.84;;;14.85;100.00
30967;BME280;17649;51.836;8.330;2023-04-08T13:27:37;101896.84;;;15.27;100.00
30967;BME280;17649;51.836;8.330;2023-04-08T13:30:38;101893.38;;;14.61;100.00
30967;BME280;17649;51.836;8.330;2023-04-08T13:33:38;101892.38;;;14.64;100.00
30967;BME280;17649;51.836;8.330;2023-04-08T13:36:38;101884.31;;;14.69;100.00
30967;BME280;17649;51.836;8.330;2023-04-08T13:39:39;101888.88;;;14.81;100.00
30967;BME280;17649;51.836;8.330;2023-04-08T13:42:39;101899.16;;;15.00;100.00
30967;BME280;17649;51.836;8.330;2023-04-08T13:45:40;101892.16;;;14.84;100.00
30967;BME280;17649;51.836;8.330;2023-04-08T13:48:41;101903.84;;;14.77;100.00
30967;BME280;17649;51.836;8.330;2023-04-08T13:51:41;101893.25;;;14.47;100.00
30967;BME280;17649;51.836;8.330;2023-04-08T13:54:41;101896.09;;;14.76;100.00
30967;BME280;17649;51.836;8.330;2023-04-08T13:57:42;101900.56;;;14.56;100.00
30967;BME280;17649;51.836;8.330;2023-04-08T14:00:42;101895.28;;;14.41;100.00
30967;BME280;17649;51.836;8.330;2023-04-08T14:03:42;101899.03;;;14.18;100.00
30967;BME280;17649;51.836;8.330;2023-04-08T14:06:43;101893.13;;;13.97;100.00
30967;BME280;17649;51.836;8.330;2023-04-08T14:09:43;101905.50;;;13.75;100.00
30967;BME280;17649;51.836;8.330;2023-04-08T14:12:43;101901.56;;;13.66;100.00
30967;BME280;17649;51.836;8.330;2023-04-08T14:15:48;101904.28;;;13.46;100.00
30967;BME280;17649;51.836;8.330;2023-04-08T14:18:49;101902.16;;;13.35;100.00
30967;BME280;17649;51.836;8.330;2023-04-08T14:21:49;101896.56;;;13.25;100.00
30967;BME280;17649;51.836;8.330;2023-04-08T14:24:49;101894.09;;;13.22;100.00
30967;BME280;17649;51.836;8.330;2023-04-08T14:27:50;101896.97;;;13.35;100.00
30967;BME280;17649;51.836;8.330;2023-04-08T14:30:50;101894.22;;;13.38;100.00
30967;BME280;17649;51.836;8.330;2023-04-08T14:33:51;101901.59;;;13.47;100.00
30967;BME280;17649;51.836;8.330;2023-04-08T14:36:51;101888.31;;;13.34;100.00
30967;BME280;17649;51.836;8.330;2023-04-08T14:39:51;101890.06;;;13.53;100.00
30967;BME280;17649;51.836;8.330;2023-04-08T14:42:52;101892.09;;;13.65;100.00
30967;BME280;17649;51.836;8.330;2023-04-08T14:45:52;101897.63;;;13.76;100.00
30967;BME280;17649;51.836;8.330;2023-04-08T14:48:53;101891.06;;;13.86;100.00
30967;BME280;17649;51.836;8.330;2023-04-08T14:51:53;101890.72;;;13.75;100.00
30967;BME280;17649;51.836;8.330;2023-04-08T14:54:53;101879.66;;;13.71;100.00
30967;BME280;17649;51.836;8.330;2023-04-08T14:57:55;101881.13;;;14.12;100.00
30967;BME280;17649;51.836;8.330;2023-04-08T15:00:56;101881.91;;;14.31;100.00
30967;BME280;17649;51.836;8.330;2023-04-08T15:03:56;101880.56;;;14.74;100.00
30967;BME280;17649;51.836;8.330;2023-04-08T15:06:56;101890.34;;;15.02;100.00
30967;BME280;17649;51.836;8.330;2023-04-08T15:09:57;101887.06;;;14.99;100.00
30967;BME280;17649;51.836;8.330;2023-04-08T15:12:57;101887.09;;;14.14;100.00
30967;BME280;17649;51.836;8.330;2023-04-08T15:15:57;101885.72;;;14.24;100.00
30967;BME280;17649;51.836;8.330;2023-04-08T15:18:58;101898.13;;;14.36;100.00
30967;BME280;17649;51.836;8.330;2023-04-08T15:21:59;101894.44;;;14.23;100.00
30967;BME280;17649;51.836;8.330;2023-04-08T15:24:59;101902.09;;;13.91;100.00
30967;BME280;17649;51.836;8.330;2023-04-08T15:28:00;101905.44;;;13.76;100.00
30967;BME280;17649;51.836;8.330;2023-04-08T15:31:01;101909.41;;;13.47;100.00
30967;BME280;17649;51.836;8.330;2023-04-08T15:34:02;101908.50;;;12.90;100.00
30967;BME280;17649;51.836;8.330;2023-04-08T15:37:02;101903.47;;;13.06;100.00
30967;BME280;17649;51.836;8.330;2023-04-08T15:40:04;101906.31;;;13.20;100.00
30967;BME280;17649;51.836;8.330;2023-04-08T15:43:05;101903.44;;;13.26;100.00
30967;BME280;17649;51.836;8.330;2023-04-08T15:46:09;101908.03;;;13.40;100.00
30967;BME280;17649;51.836;8.330;2023-04-08T15:49:10;101895.69;;;13.62;100.00
30967;BME280;17649;51.836;8.330;2023-04-08T15:52:10;101907.22;;;13.57;100.00
30967;BME280;17649;51.836;8.330;2023-04-08T15:55:12;101908.91;;;13.20;100.00